sensor_id;sensor_type;location;lat;lon;timestamp;P1;durP1;ratioP1;P2;durP2;ratioP2
16660;SDS011;8444;52.012;5.048;2022-12-07T00:01:08;6.60;;;4.57;;
16660;SDS011;8444;52.012;5.048;2022-12-07T00:03:34;12.60;;;4.87;;
16660;SDS011;8444;52.012;5.048;2022-12-07T00:06:00;6.50;;;4.23;;
16660;SDS011;8444;52.012;5.048;2022-12-07T00:08:26;4.50;;;3.10;;
16660;SDS011;8444;52.012;5.048;2022-12-07T00:10:51;5.93;;;3.93;;
16660;SDS011;8444;52.012;5.048;2022-12-07T00:13:16;6.93;;;4.93;;
16660;SDS011;8444;52.012;5.048;2022-12-07T00:30:31;5.93;;;4.37;;
16660;SDS011;8444;52.012;5.048;2022-12-07T00:32:57;6.30;;;4.17;;
16660;SDS011;8444;52.012;5.048;2022-12-07T00:35:22;8.27;;;4.30;;
16660;SDS011;8444;52.012;5.048;2022-12-07T00:37:47;13.37;;;5.40;;
16660;SDS011;8444;52.012;5.048;2022-12-07T00:40:12;8.07;;;4.50;;
16660;SDS011;8444;52.012;5.048;2022-12-07T00:42:37;6.47;;;4.03;;
16660;SDS011;8444;52.012;5.048;2022-12-07T00:45:03;7.67;;;4.13;;
16660;SDS011;8444;52.012;5.048;2022-12-07T00:47:28;7.53;;;4.40;;
16660;SDS011;8444;52.012;5.048;2022-12-07T00:49:53;9.83;;;5.40;;
16660;SDS011;8444;52.012;5.048;2022-12-07T00:52:18;14.33;;;6.03;;
16660;SDS011;8444;52.012;5.048;2022-12-07T00:54:43;4.47;;;3.60;;
16660;SDS011;8444;52.012;5.048;2022-12-07T00:57:09;6.37;;;4.40;;
16660;SDS011;8444;52.012;5.048;2022-12-07T00:59:34;7.33;;;4.30;;
16660;SDS011;8444;52.012;5.048;2022-12-07T01:01:59;7.50;;;4.67;;
16660;SDS011;8444;52.012;5.048;2022-12-07T01:04:24;8.77;;;4.87;;
16660;SDS011;8444;52.012;5.048;2022-12-07T01:06:49;12.07;;;4.70;;
16660;SDS011;8444;52.012;5.048;2022-12-07T01:09:15;6.53;;;4.30;;
16660;SDS011;8444;52.012;5.048;2022-12-07T01:11:40;10.47;;;4.30;;
16660;SDS011;8444;52.012;5.048;2022-12-07T01:14:05;7.40;;;3.63;;
16660;SDS011;8444;52.012;5.048;2022-12-07T01:16:31;7.60;;;3.53;;
16660;SDS011;8444;52.012;5.048;2022-12-07T01:18:57;4.67;;;2.93;;
16660;SDS011;8444;52.012;5.048;2022-12-07T01:21:24;15.17;;;3.57;;
16660;SDS011;8444;52.012;5.048;2022-12-07T01:23:50;5.73;;;3.60;;
16660;SDS011;8444;52.012;5.048;2022-12-07T01:26:16;6.87;;;3.63;;
16660;SDS011;8444;52.012;5.048;2022-12-07T01:28:42;9.17;;;3.73;;
16660;SDS011;8444;52.012;5.048;2022-12-07T01:31:09;8.97;;;3.23;;
16660;SDS011;8444;52.012;5.048;2022-12-07T01:33:36;6.90;;;3.43;;
16660;SDS011;8444;52.012;5.048;2022-12-07T01:36:08;3.37;;;3.07;;
16660;SDS011;8444;52.012;5.048;2022-12-07T01:38:33;6.20;;;2.93;;
16660;SDS011;8444;52.012;5.048;2022-12-07T01:40:59;5.27;;;3.10;;
16660;SDS011;8444;52.012;5.048;2022-12-07T01:43:26;3.93;;;3.00;;
16660;SDS011;8444;52.012;5.048;2022-12-07T01:45:51;5.97;;;2.90;;
16660;SDS011;8444;52.012;5.048;2022-12-07T01:48:17;5.53;;;2.50;;
16660;SDS011;8444;52.012;5.048;2022-12-07T01:50:43;4.57;;;2.37;;
16660;SDS011;8444;52.012;5.048;2022-12-07T01:53:10;5.90;;;2.60;;
16660;SDS011;8444;52.012;5.048;2022-12-07T01:55:36;4.53;;;2.30;;
16660;SDS011;8444;52.012;5.048;2022-12-07T01:58:02;9.77;;;2.00;;
16660;SDS011;8444;52.012;5.048;2022-12-07T02:00:28;6.83;;;1.67;;
16660;SDS011;8444;52.012;5.048;2022-12-07T02:05:19;3.57;;;2.27;;
16660;SDS011;8444;52.012;5.048;2022-12-07T02:07:44;5.23;;;2.00;;
16660;SDS011;8444;52.012;5.048;2022-12-07T02:10:18;6.57;;;1.80;;
16660;SDS011;8444;52.012;5.048;2022-12-07T02:12:44;8.23;;;1.70;;
16660;SDS011;8444;52.012;5.048;2022-12-07T02:15:11;9.30;;;1.50;;
16660;SDS011;8444;52.012;5.048;2022-12-07T02:27:28;4.90;;;0.97;;
16660;SDS011;8444;52.012;5.048;2022-12-07T02:35:09;4.23;;;1.97;;
16660;SDS011;8444;52.012;5.048;2022-12-07T02:37:39;4.77;;;0.80;;
16660;SDS011;8444;52.012;5.048;2022-12-07T02:42:37;10.87;;;1.53;;
16660;SDS011;8444;52.012;5.048;2022-12-07T02:45:03;4.17;;;1.03;;
16660;SDS011;8444;52.012;5.048;2022-12-07T02:47:29;4.00;;;0.77;;
16660;SDS011;8444;52.012;5.048;2022-12-07T02:49:56;6.73;;;1.00;;
16660;SDS011;8444;52.012;5.048;2022-12-07T02:52:21;4.30;;;1.00;;
16660;SDS011;8444;52.012;5.048;2022-12-07T02:54:47;3.23;;;0.90;;
16660;SDS011;8444;52.012;5.048;2022-12-07T03:07:21;2.43;;;0.83;;
16660;SDS011;8444;52.012;5.048;2022-12-07T03:09:52;2.57;;;0.87;;
16660;SDS011;8444;52.012;5.048;2022-12-07T03:12:20;3.20;;;0.90;;
16660;SDS011;8444;52.012;5.048;2022-12-07T03:14:52;2.90;;;2.37;;
16660;SDS011;8444;52.012;5.048;2022-12-07T03:17:27;4.97;;;0.80;;
16660;SDS011;8444;52.012;5.048;2022-12-07T03:19:54;3.63;;;0.90;;
16660;SDS011;8444;52.012;5.048;2022-12-07T03:22:20;3.10;;;0.70;;
16660;SDS011;8444;52.012;5.048;2022-12-07T03:24:51;3.17;;;1.20;;
16660;SDS011;8444;52.012;5.048;2022-12-07T03:27:21;3.23;;;1.03;;
16660;SDS011;8444;52.012;5.048;2022-12-07T03:29:49;4.03;;;1.00;;
16660;SDS011;8444;52.012;5.048;2022-12-07T03:32:58;6.47;;;0.80;;
16660;SDS011;8444;52.012;5.048;2022-12-07T03:37:33;2.43;;;0.90;;
16660;SDS011;8444;52.012;5.048;2022-12-07T03:42:42;2.47;;;1.07;;
16660;SDS011;8444;52.012;5.048;2022-12-07T03:45:08;4.73;;;0.97;;
16660;SDS011;8444;52.012;5.048;2022-12-07T03:50:00;4.87;;;1.00;;
16660;SDS011;8444;52.012;5.048;2022-12-07T03:52:32;2.03;;;0.70;;
16660;SDS011;8444;52.012;5.048;2022-12-07T03:55:05;2.33;;;0.90;;
16660;SDS011;8444;52.012;5.048;2022-12-07T03:57:33;2.40;;;0.83;;
16660;SDS011;8444;52.012;5.048;2022-12-07T04:00:00;1.50;;;0.83;;
16660;SDS011;8444;52.012;5.048;2022-12-07T04:02:26;2.67;;;1.00;;
16660;SDS011;8444;52.012;5.048;2022-12-07T04:04:52;2.17;;;0.80;;
16660;SDS011;8444;52.012;5.048;2022-12-07T04:07:17;5.97;;;1.50;;
16660;SDS011;8444;52.012;5.048;2022-12-07T04:09:43;3.60;;;1.43;;
16660;SDS011;8444;52.012;5.048;2022-12-07T04:12:08;2.33;;;0.70;;
16660;SDS011;8444;52.012;5.048;2022-12-07T04:14:33;2.37;;;1.07;;
16660;SDS011;8444;52.012;5.048;2022-12-07T04:16:59;3.10;;;1.20;;
16660;SDS011;8444;52.012;5.048;2022-12-07T04:19:31;5.10;;;1.10;;
16660;SDS011;8444;52.012;5.048;2022-12-07T04:21:57;2.97;;;1.20;;
16660;SDS011;8444;52.012;5.048;2022-12-07T04:24:22;3.90;;;1.43;;
16660;SDS011;8444;52.012;5.048;2022-12-07T04:26:48;2.17;;;1.10;;
16660;SDS011;8444;52.012;5.048;2022-12-07T04:29:13;3.63;;;0.87;;
16660;SDS011;8444;52.012;5.048;2022-12-07T04:31:39;4.80;;;0.93;;
16660;SDS011;8444;52.012;5.048;2022-12-07T04:34:04;4.70;;;0.80;;
16660;SDS011;8444;52.012;5.048;2022-12-07T04:36:30;5.20;;;1.00;;
16660;SDS011;8444;52.012;5.048;2022-12-07T04:38:55;5.70;;;1.13;;
16660;SDS011;8444;52.012;5.048;2022-12-07T04:41:21;6.23;;;1.30;;
16660;SDS011;8444;52.012;5.048;2022-12-07T04:43:52;6.17;;;1.20;;
16660;SDS011;8444;52.012;5.048;2022-12-07T04:46:17;5.03;;;1.00;;
16660;SDS011;8444;52.012;5.048;2022-12-07T04:48:42;7.07;;;1.43;;
16660;SDS011;8444;52.012;5.048;2022-12-07T04:51:08;4.30;;;1.37;;
16660;SDS011;8444;52.012;5.048;2022-12-07T04:53:33;5.97;;;1.03;;
16660;SDS011;8444;52.012;5.048;2022-12-07T04:55:58;2.40;;;0.70;;
16660;SDS011;8444;52.012;5.048;2022-12-07T04:58:23;2.13;;;0.70;;
16660;SDS011;8444;52.012;5.048;2022-12-07T05:00:48;4.80;;;0.97;;
16660;SDS011;8444;52.012;5.048;2022-12-07T05:03:14;6.23;;;1.03;;
16660;SDS011;8444;52.012;5.048;2022-12-07T05:05:41;3.10;;;1.00;;
16660;SDS011;8444;52.012;5.048;2022-12-07T05:08:07;3.43;;;1.07;;
16660;SDS011;8444;52.012;5.048;2022-12-07T05:10:32;5.93;;;0.90;;
16660;SDS011;8444;52.012;5.048;2022-12-07T05:12:57;3.43;;;1.30;;
16660;SDS011;8444;52.012;5.048;2022-12-07T05:15:22;3.67;;;1.10;;
16660;SDS011;8444;52.012;5.048;2022-12-07T05:17:47;4.57;;;1.10;;
16660;SDS011;8444;52.012;5.048;2022-12-07T05:20:13;3.40;;;0.63;;
16660;SDS011;8444;52.012;5.048;2022-12-07T05:22:38;4.40;;;1.30;;
16660;SDS011;8444;52.012;5.048;2022-12-07T05:25:03;7.63;;;1.10;;
16660;SDS011;8444;52.012;5.048;2022-12-07T05:27:28;5.90;;;1.07;;
16660;SDS011;8444;52.012;5.048;2022-12-07T05:29:54;4.90;;;1.13;;
16660;SDS011;8444;52.012;5.048;2022-12-07T05:32:19;2.40;;;0.60;;
16660;SDS011;8444;52.012;5.048;2022-12-07T05:34:44;3.93;;;0.90;;
16660;SDS011;8444;52.012;5.048;2022-12-07T05:37:09;6.63;;;1.40;;
16660;SDS011;8444;52.012;5.048;2022-12-07T05:39:34;3.73;;;1.00;;
16660;SDS011;8444;52.012;5.048;2022-12-07T05:42:00;5.27;;;0.93;;
16660;SDS011;8444;52.012;5.048;2022-12-07T05:44:40;4.50;;;1.00;;
16660;SDS011;8444;52.012;5.048;2022-12-07T05:47:06;3.40;;;1.70;;
16660;SDS011;8444;52.012;5.048;2022-12-07T05:49:31;5.23;;;0.97;;
16660;SDS011;8444;52.012;5.048;2022-12-07T05:51:56;2.27;;;0.90;;
16660;SDS011;8444;52.012;5.048;2022-12-07T05:54:22;2.90;;;0.90;;
16660;SDS011;8444;52.012;5.048;2022-12-07T05:56:47;4.83;;;1.00;;
16660;SDS011;8444;52.012;5.048;2022-12-07T05:59:12;13.83;;;3.53;;
16660;SDS011;8444;52.012;5.048;2022-12-07T06:04:18;4.10;;;1.23;;
16660;SDS011;8444;52.012;5.048;2022-12-07T06:06:43;3.67;;;1.40;;
16660;SDS011;8444;52.012;5.048;2022-12-07T06:09:08;4.73;;;1.23;;
16660;SDS011;8444;52.012;5.048;2022-12-07T06:11:34;5.37;;;1.23;;
16660;SDS011;8444;52.012;5.048;2022-12-07T06:14:17;4.70;;;1.30;;
16660;SDS011;8444;52.012;5.048;2022-12-07T06:16:43;6.80;;;1.20;;
16660;SDS011;8444;52.012;5.048;2022-12-07T06:19:08;5.57;;;1.30;;
16660;SDS011;8444;52.012;5.048;2022-12-07T06:21:33;5.87;;;1.30;;
16660;SDS011;8444;52.012;5.048;2022-12-07T06:23:58;4.00;;;1.40;;
16660;SDS011;8444;52.012;5.048;2022-12-07T06:26:24;3.40;;;1.03;;
16660;SDS011;8444;52.012;5.048;2022-12-07T06:28:49;3.17;;;1.37;;
16660;SDS011;8444;52.012;5.048;2022-12-07T06:31:14;5.63;;;1.67;;
16660;SDS011;8444;52.012;5.048;2022-12-07T06:33:40;8.10;;;2.10;;
16660;SDS011;8444;52.012;5.048;2022-12-07T06:36:05;6.47;;;1.87;;
16660;SDS011;8444;52.012;5.048;2022-12-07T06:38:30;3.10;;;1.93;;
16660;SDS011;8444;52.012;5.048;2022-12-07T06:40:56;5.50;;;1.13;;
16660;SDS011;8444;52.012;5.048;2022-12-07T06:43:21;10.70;;;1.90;;
16660;SDS011;8444;52.012;5.048;2022-12-07T06:45:46;3.47;;;1.00;;
16660;SDS011;8444;52.012;5.048;2022-12-07T06:48:11;3.40;;;1.40;;
16660;SDS011;8444;52.012;5.048;2022-12-07T06:50:36;5.97;;;1.40;;
16660;SDS011;8444;52.012;5.048;2022-12-07T06:53:02;4.33;;;1.80;;
16660;SDS011;8444;52.012;5.048;2022-12-07T06:55:27;4.43;;;1.30;;
16660;SDS011;8444;52.012;5.048;2022-12-07T06:57:52;4.50;;;0.90;;
16660;SDS011;8444;52.012;5.048;2022-12-07T07:00:17;3.67;;;1.50;;
16660;SDS011;8444;52.012;5.048;2022-12-07T07:02:43;6.13;;;1.30;;
16660;SDS011;8444;52.012;5.048;2022-12-07T07:05:08;2.43;;;1.57;;
16660;SDS011;8444;52.012;5.048;2022-12-07T07:07:33;5.67;;;1.50;;
16660;SDS011;8444;52.012;5.048;2022-12-07T07:09:58;7.93;;;1.43;;
16660;SDS011;8444;52.012;5.048;2022-12-07T07:12:24;9.50;;;1.63;;
16660;SDS011;8444;52.012;5.048;2022-12-07T07:14:49;11.43;;;2.63;;
16660;SDS011;8444;52.012;5.048;2022-12-07T07:17:14;4.70;;;1.80;;
16660;SDS011;8444;52.012;5.048;2022-12-07T07:19:39;4.37;;;1.70;;
16660;SDS011;8444;52.012;5.048;2022-12-07T07:22:04;7.10;;;1.57;;
16660;SDS011;8444;52.012;5.048;2022-12-07T07:24:30;10.13;;;1.57;;
16660;SDS011;8444;52.012;5.048;2022-12-07T07:26:55;4.20;;;1.10;;
16660;SDS011;8444;52.012;5.048;2022-12-07T07:29:20;7.27;;;1.30;;
16660;SDS011;8444;52.012;5.048;2022-12-07T07:31:45;3.13;;;0.90;;
16660;SDS011;8444;52.012;5.048;2022-12-07T07:34:10;2.73;;;1.03;;
16660;SDS011;8444;52.012;5.048;2022-12-07T07:36:36;3.77;;;0.80;;
16660;SDS011;8444;52.012;5.048;2022-12-07T07:39:01;5.53;;;1.37;;
16660;SDS011;8444;52.012;5.048;2022-12-07T07:41:26;4.93;;;1.23;;
16660;SDS011;8444;52.012;5.048;2022-12-07T07:43:51;5.60;;;1.00;;
16660;SDS011;8444;52.012;5.048;2022-12-07T07:46:16;6.57;;;1.20;;
16660;SDS011;8444;52.012;5.048;2022-12-07T07:48:42;3.83;;;0.87;;
16660;SDS011;8444;52.012;5.048;2022-12-07T07:51:07;6.33;;;1.23;;
16660;SDS011;8444;52.012;5.048;2022-12-07T07:53:33;4.97;;;1.33;;
16660;SDS011;8444;52.012;5.048;2022-12-07T07:55:58;3.23;;;1.10;;
16660;SDS011;8444;52.012;5.048;2022-12-07T07:58:23;4.57;;;1.30;;
16660;SDS011;8444;52.012;5.048;2022-12-07T08:00:49;4.13;;;0.90;;
16660;SDS011;8444;52.012;5.048;2022-12-07T08:03:14;4.53;;;1.70;;
16660;SDS011;8444;52.012;5.048;2022-12-07T08:05:39;8.10;;;2.33;;
16660;SDS011;8444;52.012;5.048;2022-12-07T08:08:04;1.97;;;1.37;;
16660;SDS011;8444;52.012;5.048;2022-12-07T08:10:30;9.80;;;1.50;;
16660;SDS011;8444;52.012;5.048;2022-12-07T08:12:57;3.30;;;1.30;;
16660;SDS011;8444;52.012;5.048;2022-12-07T08:15:43;4.43;;;1.43;;
16660;SDS011;8444;52.012;5.048;2022-12-07T08:18:08;7.60;;;2.50;;
16660;SDS011;8444;52.012;5.048;2022-12-07T08:20:34;4.50;;;1.40;;
16660;SDS011;8444;52.012;5.048;2022-12-07T08:23:00;5.73;;;2.20;;
16660;SDS011;8444;52.012;5.048;2022-12-07T08:25:25;9.20;;;2.00;;
16660;SDS011;8444;52.012;5.048;2022-12-07T08:27:51;5.23;;;2.27;;
16660;SDS011;8444;52.012;5.048;2022-12-07T08:30:16;8.13;;;1.87;;
16660;SDS011;8444;52.012;5.048;2022-12-07T08:32:42;4.17;;;1.40;;
16660;SDS011;8444;52.012;5.048;2022-12-07T08:35:08;6.07;;;1.53;;
16660;SDS011;8444;52.012;5.048;2022-12-07T08:37:34;4.13;;;1.70;;
16660;SDS011;8444;52.012;5.048;2022-12-07T08:39:59;4.63;;;1.60;;
16660;SDS011;8444;52.012;5.048;2022-12-07T08:42:24;6.87;;;1.20;;
16660;SDS011;8444;52.012;5.048;2022-12-07T08:44:54;4.30;;;1.40;;
16660;SDS011;8444;52.012;5.048;2022-12-07T08:47:19;5.90;;;1.50;;
16660;SDS011;8444;52.012;5.048;2022-12-07T08:49:45;3.20;;;1.50;;
16660;SDS011;8444;52.012;5.048;2022-12-07T08:52:12;5.00;;;1.73;;
16660;SDS011;8444;52.012;5.048;2022-12-07T08:54:38;6.13;;;1.87;;
16660;SDS011;8444;52.012;5.048;2022-12-07T08:57:03;6.10;;;2.23;;
16660;SDS011;8444;52.012;5.048;2022-12-07T08:59:29;5.73;;;2.50;;
16660;SDS011;8444;52.012;5.048;2022-12-07T09:01:54;4.57;;;1.97;;
16660;SDS011;8444;52.012;5.048;2022-12-07T09:04:20;6.37;;;2.00;;
16660;SDS011;8444;52.012;5.048;2022-12-07T09:06:45;6.47;;;1.83;;
16660;SDS011;8444;52.012;5.048;2022-12-07T09:09:10;6.67;;;2.00;;
16660;SDS011;8444;52.012;5.048;2022-12-07T09:11:36;4.17;;;1.60;;
16660;SDS011;8444;52.012;5.048;2022-12-07T09:14:02;6.33;;;1.70;;
16660;SDS011;8444;52.012;5.048;2022-12-07T09:16:27;5.53;;;1.60;;
16660;SDS011;8444;52.012;5.048;2022-12-07T09:18:53;5.07;;;2.10;;
16660;SDS011;8444;52.012;5.048;2022-12-07T09:21:18;3.80;;;1.60;;
16660;SDS011;8444;52.012;5.048;2022-12-07T09:23:43;10.77;;;2.70;;
16660;SDS011;8444;52.012;5.048;2022-12-07T09:26:09;7.13;;;2.10;;
16660;SDS011;8444;52.012;5.048;2022-12-07T09:28:34;6.27;;;1.70;;
16660;SDS011;8444;52.012;5.048;2022-12-07T09:30:59;4.17;;;3.00;;
16660;SDS011;8444;52.012;5.048;2022-12-07T09:33:25;2.97;;;1.67;;
16660;SDS011;8444;52.012;5.048;2022-12-07T09:35:50;3.30;;;1.27;;
16660;SDS011;8444;52.012;5.048;2022-12-07T09:38:15;3.80;;;1.50;;
16660;SDS011;8444;52.012;5.048;2022-12-07T09:40:41;4.03;;;1.47;;
16660;SDS011;8444;52.012;5.048;2022-12-07T09:43:15;3.87;;;1.40;;
16660;SDS011;8444;52.012;5.048;2022-12-07T09:45:41;5.80;;;1.40;;
16660;SDS011;8444;52.012;5.048;2022-12-07T09:48:13;9.00;;;2.57;;
16660;SDS011;8444;52.012;5.048;2022-12-07T09:50:40;4.03;;;1.50;;
16660;SDS011;8444;52.012;5.048;2022-12-07T09:53:08;5.70;;;1.83;;
16660;SDS011;8444;52.012;5.048;2022-12-07T09:55:33;4.77;;;1.27;;
16660;SDS011;8444;52.012;5.048;2022-12-07T09:58:00;2.90;;;1.20;;
16660;SDS011;8444;52.012;5.048;2022-12-07T10:00:26;3.03;;;1.30;;
16660;SDS011;8444;52.012;5.048;2022-12-07T10:02:55;5.20;;;1.70;;
16660;SDS011;8444;52.012;5.048;2022-12-07T10:07:52;3.07;;;1.00;;
16660;SDS011;8444;52.012;5.048;2022-12-07T10:10:30;3.63;;;1.17;;
16660;SDS011;8444;52.012;5.048;2022-12-07T10:13:00;5.83;;;1.57;;
16660;SDS011;8444;52.012;5.048;2022-12-07T10:18:34;3.20;;;1.20;;
16660;SDS011;8444;52.012;5.048;2022-12-07T10:23:29;4.57;;;1.50;;
16660;SDS011;8444;52.012;5.048;2022-12-07T10:25:54;3.40;;;1.87;;
16660;SDS011;8444;52.012;5.048;2022-12-07T10:28:20;7.07;;;1.83;;
16660;SDS011;8444;52.012;5.048;2022-12-07T10:30:59;9.57;;;2.43;;
16660;SDS011;8444;52.012;5.048;2022-12-07T10:35:59;3.70;;;1.20;;
16660;SDS011;8444;52.012;5.048;2022-12-07T10:38:27;4.63;;;1.73;;
16660;SDS011;8444;52.012;5.048;2022-12-07T10:41:03;2.50;;;1.30;;
16660;SDS011;8444;52.012;5.048;2022-12-07T10:43:28;3.27;;;1.13;;
16660;SDS011;8444;52.012;5.048;2022-12-07T10:46:09;2.53;;;1.10;;
16660;SDS011;8444;52.012;5.048;2022-12-07T10:49:02;5.57;;;2.53;;
16660;SDS011;8444;52.012;5.048;2022-12-07T10:54:12;3.47;;;1.30;;
16660;SDS011;8444;52.012;5.048;2022-12-07T10:56:43;3.83;;;0.83;;
16660;SDS011;8444;52.012;5.048;2022-12-07T11:14:46;6.93;;;1.33;;
16660;SDS011;8444;52.012;5.048;2022-12-07T11:22:56;4.67;;;1.37;;
16660;SDS011;8444;52.012;5.048;2022-12-07T11:25:31;8.13;;;2.60;;
16660;SDS011;8444;52.012;5.048;2022-12-07T11:28:03;1.90;;;1.23;;
16660;SDS011;8444;52.012;5.048;2022-12-07T11:30:34;2.43;;;1.10;;
16660;SDS011;8444;52.012;5.048;2022-12-07T11:38:17;3.70;;;1.13;;
16660;SDS011;8444;52.012;5.048;2022-12-07T11:40:43;1.77;;;0.80;;
16660;SDS011;8444;52.012;5.048;2022-12-07T11:43:21;4.00;;;0.60;;
16660;SDS011;8444;52.012;5.048;2022-12-07T11:46:03;4.53;;;1.47;;
16660;SDS011;8444;52.012;5.048;2022-12-07T11:48:38;4.27;;;1.60;;
16660;SDS011;8444;52.012;5.048;2022-12-07T11:51:06;1.73;;;0.90;;
16660;SDS011;8444;52.012;5.048;2022-12-07T11:53:34;2.30;;;0.60;;
16660;SDS011;8444;52.012;5.048;2022-12-07T11:56:20;5.93;;;1.23;;
16660;SDS011;8444;52.012;5.048;2022-12-07T11:58:51;2.97;;;0.80;;
16660;SDS011;8444;52.012;5.048;2022-12-07T12:02:07;2.27;;;0.80;;
16660;SDS011;8444;52.012;5.048;2022-12-07T12:04:13;2.43;;;0.77;;
16660;SDS011;8444;52.012;5.048;2022-12-07T12:06:42;2.50;;;0.70;;
16660;SDS011;8444;52.012;5.048;2022-12-07T12:09:19;3.80;;;1.00;;
16660;SDS011;8444;52.012;5.048;2022-12-07T12:17:12;2.27;;;0.60;;
16660;SDS011;8444;52.012;5.048;2022-12-07T12:19:55;0.97;;;0.47;;
16660;SDS011;8444;52.012;5.048;2022-12-07T12:22:22;2.13;;;0.80;;
16660;SDS011;8444;52.012;5.048;2022-12-07T12:24:52;4.63;;;1.20;;
16660;SDS011;8444;52.012;5.048;2022-12-07T12:29:43;2.70;;;1.00;;
16660;SDS011;8444;52.012;5.048;2022-12-07T12:32:17;2.23;;;0.70;;
16660;SDS011;8444;52.012;5.048;2022-12-07T12:42:52;7.20;;;0.90;;
16660;SDS011;8444;52.012;5.048;2022-12-07T12:50:31;3.93;;;1.40;;
16660;SDS011;8444;52.012;5.048;2022-12-07T12:53:02;2.33;;;1.13;;
16660;SDS011;8444;52.012;5.048;2022-12-07T12:55:44;4.23;;;1.10;;
16660;SDS011;8444;52.012;5.048;2022-12-07T13:00:43;2.33;;;0.70;;
16660;SDS011;8444;52.012;5.048;2022-12-07T13:03:16;3.80;;;0.77;;
16660;SDS011;8444;52.012;5.048;2022-12-07T13:05:46;2.13;;;0.90;;
16660;SDS011;8444;52.012;5.048;2022-12-07T13:08:18;2.43;;;0.80;;
16660;SDS011;8444;52.012;5.048;2022-12-07T13:10:46;1.47;;;0.50;;
16660;SDS011;8444;52.012;5.048;2022-12-07T13:15:41;1.93;;;0.47;;
16660;SDS011;8444;52.012;5.048;2022-12-07T13:23:26;3.20;;;0.80;;
16660;SDS011;8444;52.012;5.048;2022-12-07T13:26:35;1.63;;;0.67;;
16660;SDS011;8444;52.012;5.048;2022-12-07T13:28:49;2.23;;;0.57;;
16660;SDS011;8444;52.012;5.048;2022-12-07T13:33:52;2.13;;;0.47;;
16660;SDS011;8444;52.012;5.048;2022-12-07T13:36:25;7.30;;;2.10;;
16660;SDS011;8444;52.012;5.048;2022-12-07T13:38:52;1.90;;;0.37;;
16660;SDS011;8444;52.012;5.048;2022-12-07T13:41:19;3.93;;;0.60;;
16660;SDS011;8444;52.012;5.048;2022-12-07T13:46:10;0.67;;;0.63;;
16660;SDS011;8444;52.012;5.048;2022-12-07T13:48:43;1.53;;;0.53;;
16660;SDS011;8444;52.012;5.048;2022-12-07T13:51:14;0.77;;;0.40;;
16660;SDS011;8444;52.012;5.048;2022-12-07T13:53:45;2.03;;;0.40;;
16660;SDS011;8444;52.012;5.048;2022-12-07T13:56:12;1.37;;;0.60;;
16660;SDS011;8444;52.012;5.048;2022-12-07T13:58:38;1.27;;;0.40;;
16660;SDS011;8444;52.012;5.048;2022-12-07T14:01:03;1.13;;;0.40;;
16660;SDS011;8444;52.012;5.048;2022-12-07T14:03:31;1.13;;;0.50;;
16660;SDS011;8444;52.012;5.048;2022-12-07T14:06:04;3.93;;;0.73;;
16660;SDS011;8444;52.012;5.048;2022-12-07T14:08:30;1.67;;;0.47;;
16660;SDS011;8444;52.012;5.048;2022-12-07T14:10:56;1.83;;;0.53;;
16660;SDS011;8444;52.012;5.048;2022-12-07T14:13:27;1.13;;;0.50;;
16660;SDS011;8444;52.012;5.048;2022-12-07T14:15:53;0.57;;;0.40;;
16660;SDS011;8444;52.012;5.048;2022-12-07T14:21:04;2.33;;;0.50;;
16660;SDS011;8444;52.012;5.048;2022-12-07T14:23:29;3.43;;;0.60;;
16660;SDS011;8444;52.012;5.048;2022-12-07T14:26:04;0.93;;;0.63;;
16660;SDS011;8444;52.012;5.048;2022-12-07T14:30:55;2.93;;;0.70;;
16660;SDS011;8444;52.012;5.048;2022-12-07T14:33:20;1.77;;;0.70;;
16660;SDS011;8444;52.012;5.048;2022-12-07T14:35:46;2.00;;;0.80;;
16660;SDS011;8444;52.012;5.048;2022-12-07T14:38:11;1.20;;;0.50;;
16660;SDS011;8444;52.012;5.048;2022-12-07T14:40:36;2.83;;;0.60;;
16660;SDS011;8444;52.012;5.048;2022-12-07T14:43:04;3.03;;;0.60;;
16660;SDS011;8444;52.012;5.048;2022-12-07T14:45:29;3.03;;;0.60;;
16660;SDS011;8444;52.012;5.048;2022-12-07T14:47:55;3.40;;;0.60;;
16660;SDS011;8444;52.012;5.048;2022-12-07T14:50:20;3.07;;;0.63;;
16660;SDS011;8444;52.012;5.048;2022-12-07T14:52:47;1.30;;;0.70;;
16660;SDS011;8444;52.012;5.048;2022-12-07T14:55:14;4.40;;;1.10;;
16660;SDS011;8444;52.012;5.048;2022-12-07T14:57:40;3.27;;;1.30;;
16660;SDS011;8444;52.012;5.048;2022-12-07T15:00:05;2.43;;;0.63;;
16660;SDS011;8444;52.012;5.048;2022-12-07T15:02:31;1.20;;;0.50;;
16660;SDS011;8444;52.012;5.048;2022-12-07T15:04:56;4.53;;;0.73;;
16660;SDS011;8444;52.012;5.048;2022-12-07T15:07:21;2.00;;;0.50;;
16660;SDS011;8444;52.012;5.048;2022-12-07T15:09:47;0.90;;;0.50;;
16660;SDS011;8444;52.012;5.048;2022-12-07T15:12:13;1.27;;;0.70;;
16660;SDS011;8444;52.012;5.048;2022-12-07T15:14:38;0.57;;;0.50;;
16660;SDS011;8444;52.012;5.048;2022-12-07T15:17:03;1.53;;;0.60;;
16660;SDS011;8444;52.012;5.048;2022-12-07T15:19:28;0.60;;;0.40;;
16660;SDS011;8444;52.012;5.048;2022-12-07T15:21:54;1.90;;;0.53;;
16660;SDS011;8444;52.012;5.048;2022-12-07T15:24:19;0.83;;;0.50;;
16660;SDS011;8444;52.012;5.048;2022-12-07T15:26:44;1.20;;;0.60;;
16660;SDS011;8444;52.012;5.048;2022-12-07T15:29:10;2.53;;;0.60;;
16660;SDS011;8444;52.012;5.048;2022-12-07T15:31:35;1.23;;;0.60;;
16660;SDS011;8444;52.012;5.048;2022-12-07T15:34:00;3.37;;;1.40;;
16660;SDS011;8444;52.012;5.048;2022-12-07T15:36:26;2.77;;;0.70;;
16660;SDS011;8444;52.012;5.048;2022-12-07T15:38:52;3.93;;;0.93;;
16660;SDS011;8444;52.012;5.048;2022-12-07T15:41:17;3.60;;;1.00;;
16660;SDS011;8444;52.012;5.048;2022-12-07T15:43:43;1.50;;;0.80;;
16660;SDS011;8444;52.012;5.048;2022-12-07T15:46:33;4.33;;;1.07;;
16660;SDS011;8444;52.012;5.048;2022-12-07T15:48:59;3.43;;;0.90;;
16660;SDS011;8444;52.012;5.048;2022-12-07T15:51:25;5.53;;;2.43;;
16660;SDS011;8444;52.012;5.048;2022-12-07T15:53:50;1.90;;;1.20;;
16660;SDS011;8444;52.012;5.048;2022-12-07T15:56:16;6.53;;;2.20;;
16660;SDS011;8444;52.012;5.048;2022-12-07T15:58:41;3.70;;;1.63;;
16660;SDS011;8444;52.012;5.048;2022-12-07T16:01:10;3.23;;;1.10;;
16660;SDS011;8444;52.012;5.048;2022-12-07T16:03:36;2.60;;;1.10;;
16660;SDS011;8444;52.012;5.048;2022-12-07T16:06:01;4.40;;;1.43;;
16660;SDS011;8444;52.012;5.048;2022-12-07T16:08:26;3.67;;;1.37;;
16660;SDS011;8444;52.012;5.048;2022-12-07T16:10:51;2.60;;;0.70;;
16660;SDS011;8444;52.012;5.048;2022-12-07T16:13:16;1.40;;;0.60;;
16660;SDS011;8444;52.012;5.048;2022-12-07T16:15:44;2.60;;;0.70;;
16660;SDS011;8444;52.012;5.048;2022-12-07T16:18:09;2.93;;;1.17;;
16660;SDS011;8444;52.012;5.048;2022-12-07T16:20:34;2.70;;;0.70;;
16660;SDS011;8444;52.012;5.048;2022-12-07T16:23:00;2.93;;;0.70;;
16660;SDS011;8444;52.012;5.048;2022-12-07T16:25:25;4.57;;;0.60;;
16660;SDS011;8444;52.012;5.048;2022-12-07T16:27:51;1.83;;;0.90;;
16660;SDS011;8444;52.012;5.048;2022-12-07T16:30:16;1.47;;;0.57;;
16660;SDS011;8444;52.012;5.048;2022-12-07T16:32:42;1.20;;;0.73;;
16660;SDS011;8444;52.012;5.048;2022-12-07T16:35:07;1.60;;;1.10;;
16660;SDS011;8444;52.012;5.048;2022-12-07T16:37:33;5.20;;;1.03;;
16660;SDS011;8444;52.012;5.048;2022-12-07T16:39:58;3.70;;;1.00;;
16660;SDS011;8444;52.012;5.048;2022-12-07T16:42:23;4.23;;;0.90;;
16660;SDS011;8444;52.012;5.048;2022-12-07T16:44:48;3.63;;;1.00;;
16660;SDS011;8444;52.012;5.048;2022-12-07T16:47:13;3.27;;;1.53;;
16660;SDS011;8444;52.012;5.048;2022-12-07T16:49:39;8.03;;;1.63;;
16660;SDS011;8444;52.012;5.048;2022-12-07T16:52:04;3.90;;;1.17;;
16660;SDS011;8444;52.012;5.048;2022-12-07T16:54:29;3.43;;;0.80;;
16660;SDS011;8444;52.012;5.048;2022-12-07T16:56:57;1.97;;;0.77;;
16660;SDS011;8444;52.012;5.048;2022-12-07T16:59:23;2.73;;;1.20;;
16660;SDS011;8444;52.012;5.048;2022-12-07T17:01:48;2.33;;;1.00;;
16660;SDS011;8444;52.012;5.048;2022-12-07T17:04:13;3.20;;;1.30;;
16660;SDS011;8444;52.012;5.048;2022-12-07T17:06:38;3.10;;;1.47;;
16660;SDS011;8444;52.012;5.048;2022-12-07T17:09:04;5.93;;;1.30;;
16660;SDS011;8444;52.012;5.048;2022-12-07T17:11:33;3.60;;;1.70;;
16660;SDS011;8444;52.012;5.048;2022-12-07T17:13:59;3.03;;;1.60;;
16660;SDS011;8444;52.012;5.048;2022-12-07T17:16:43;2.20;;;1.20;;